sensor_id;sensor_type;location;lat;lon;timestamp;P1;durP1;ratioP1;P2;durP2;ratioP2
12947;SDS011;6539;49.476;8.484;2023-08-08T00:02:30;3.40;;;2.20;;
12947;SDS011;6539;49.476;8.484;2023-08-08T00:05:16;4.63;;;2.07;;
12947;SDS011;6539;49.476;8.484;2023-08-08T00:08:02;2.37;;;2.17;;
12947;SDS011;6539;49.476;8.484;2023-08-08T00:10:49;2.10;;;1.90;;
12947;SDS011;6539;49.476;8.484;2023-08-08T00:13:35;2.33;;;1.87;;
12947;SDS011;6539;49.476;8.484;2023-08-08T00:16:23;2.20;;;2.00;;
12947;SDS011;6539;49.476;8.484;2023-08-08T00:19:09;3.20;;;2.00;;
12947;SDS011;6539;49.476;8.484;2023-08-08T00:21:55;3.33;;;2.20;;
12947;SDS011;6539;49.476;8.484;2023-08-08T00:24:42;3.67;;;1.97;;
12947;SDS011;6539;49.476;8.484;2023-08-08T00:27:30;3.77;;;2.20;;
12947;SDS011;6539;49.476;8.484;2023-08-08T00:30:16;2.47;;;2.07;;
12947;SDS011;6539;49.476;8.484;2023-08-08T00:33:02;2.00;;;1.70;;
12947;SDS011;6539;49.476;8.484;2023-08-08T00:35:49;2.90;;;1.80;;
12947;SDS011;6539;49.476;8.484;2023-08-08T00:38:37;4.17;;;2.17;;
12947;SDS011;6539;49.476;8.484;2023-08-08T00:41:25;2.00;;;1.80;;
12947;SDS011;6539;49.476;8.484;2023-08-08T00:44:12;4.77;;;1.80;;
12947;SDS011;6539;49.476;8.484;2023-08-08T00:47:00;4.20;;;1.97;;
12947;SDS011;6539;49.476;8.484;2023-08-08T00:49:46;3.30;;;2.10;;
12947;SDS011;6539;49.476;8.484;2023-08-08T00:52:33;2.40;;;2.07;;
12947;SDS011;6539;49.476;8.484;2023-08-08T00:55:21;4.20;;;1.83;;
12947;SDS011;6539;49.476;8.484;2023-08-08T00:58:10;2.10;;;1.73;;
12947;SDS011;6539;49.476;8.484;2023-08-08T01:01:06;2.33;;;2.00;;
12947;SDS011;6539;49.476;8.484;2023-08-08T01:03:52;2.33;;;2.13;;
12947;SDS011;6539;49.476;8.484;2023-08-08T01:06:41;1.93;;;1.70;;
12947;SDS011;6539;49.476;8.484;2023-08-08T01:10:02;2.30;;;1.70;;
12947;SDS011;6539;49.476;8.484;2023-08-08T01:13:17;2.73;;;1.83;;
12947;SDS011;6539;49.476;8.484;2023-08-08T01:16:06;4.27;;;1.90;;
12947;SDS011;6539;49.476;8.484;2023-08-08T01:18:55;2.27;;;1.70;;
12947;SDS011;6539;49.476;8.484;2023-08-08T01:21:42;5.93;;;1.60;;
12947;SDS011;6539;49.476;8.484;2023-08-08T01:24:30;5.10;;;2.10;;
12947;SDS011;6539;49.476;8.484;2023-08-08T01:27:19;2.53;;;1.90;;
12947;SDS011;6539;49.476;8.484;2023-08-08T01:30:08;2.37;;;1.73;;
12947;SDS011;6539;49.476;8.484;2023-08-08T01:32:57;2.73;;;2.10;;
12947;SDS011;6539;49.476;8.484;2023-08-08T01:35:50;2.97;;;2.07;;
12947;SDS011;6539;49.476;8.484;2023-08-08T01:38:46;2.20;;;1.90;;
12947;SDS011;6539;49.476;8.484;2023-08-08T01:41:36;3.37;;;2.00;;
12947;SDS011;6539;49.476;8.484;2023-08-08T01:44:29;2.77;;;1.80;;
12947;SDS011;6539;49.476;8.484;2023-08-08T01:47:17;2.80;;;1.97;;
12947;SDS011;6539;49.476;8.484;2023-08-08T01:50:04;3.17;;;1.67;;
12947;SDS011;6539;49.476;8.484;2023-08-08T01:52:53;3.17;;;1.77;;
12947;SDS011;6539;49.476;8.484;2023-08-08T01:55:39;2.60;;;1.87;;
12947;SDS011;6539;49.476;8.484;2023-08-08T01:58:28;2.40;;;1.90;;
12947;SDS011;6539;49.476;8.484;2023-08-08T02:01:14;2.63;;;1.93;;
12947;SDS011;6539;49.476;8.484;2023-08-08T02:04:00;3.27;;;1.90;;
12947;SDS011;6539;49.476;8.484;2023-08-08T02:06:46;4.20;;;1.80;;
12947;SDS011;6539;49.476;8.484;2023-08-08T02:09:34;2.63;;;2.10;;
12947;SDS011;6539;49.476;8.484;2023-08-08T02:12:23;3.33;;;1.80;;
12947;SDS011;6539;49.476;8.484;2023-08-08T02:15:09;2.33;;;1.67;;
12947;SDS011;6539;49.476;8.484;2023-08-08T02:17:55;2.50;;;1.83;;
12947;SDS011;6539;49.476;8.484;2023-08-08T02:20:44;3.53;;;1.70;;
12947;SDS011;6539;49.476;8.484;2023-08-08T02:23:30;5.10;;;1.90;;
12947;SDS011;6539;49.476;8.484;2023-08-08T02:26:16;3.87;;;2.10;;
12947;SDS011;6539;49.476;8.484;2023-08-08T02:29:02;3.40;;;2.10;;
12947;SDS011;6539;49.476;8.484;2023-08-08T02:31:50;3.87;;;2.00;;
12947;SDS011;6539;49.476;8.484;2023-08-08T02:34:38;3.13;;;1.90;;
12947;SDS011;6539;49.476;8.484;2023-08-08T02:37:24;3.17;;;2.07;;
12947;SDS011;6539;49.476;8.484;2023-08-08T02:40:10;10.67;;;7.43;;
12947;SDS011;6539;49.476;8.484;2023-08-08T02:42:56;8.17;;;6.77;;
12947;SDS011;6539;49.476;8.484;2023-08-08T02:45:45;3.93;;;2.60;;
12947;SDS011;6539;49.476;8.484;2023-08-08T02:48:33;2.70;;;2.00;;
12947;SDS011;6539;49.476;8.484;2023-08-08T02:51:19;2.50;;;1.93;;
12947;SDS011;6539;49.476;8.484;2023-08-08T02:54:05;4.50;;;2.53;;
12947;SDS011;6539;49.476;8.484;2023-08-08T02:56:54;3.00;;;2.00;;
12947;SDS011;6539;49.476;8.484;2023-08-08T02:59:40;3.97;;;1.90;;
12947;SDS011;6539;49.476;8.484;2023-08-08T03:02:30;4.03;;;1.90;;
12947;SDS011;6539;49.476;8.484;2023-08-08T03:05:16;4.20;;;1.87;;
12947;SDS011;6539;49.476;8.484;2023-08-08T03:08:07;2.10;;;1.87;;
12947;SDS011;6539;49.476;8.484;2023-08-08T03:10:53;4.20;;;1.87;;
12947;SDS011;6539;49.476;8.484;2023-08-08T03:13:41;2.23;;;2.00;;
12947;SDS011;6539;49.476;8.484;2023-08-08T03:16:27;4.70;;;2.20;;
12947;SDS011;6539;49.476;8.484;2023-08-08T03:19:16;2.43;;;1.83;;
12947;SDS011;6539;49.476;8.484;2023-08-08T03:22:02;2.57;;;1.90;;
12947;SDS011;6539;49.476;8.484;2023-08-08T03:24:48;3.43;;;2.13;;
12947;SDS011;6539;49.476;8.484;2023-08-08T03:27:36;2.67;;;2.20;;
12947;SDS011;6539;49.476;8.484;2023-08-08T03:30:22;3.27;;;2.17;;
12947;SDS011;6539;49.476;8.484;2023-08-08T03:33:08;2.57;;;1.80;;
12947;SDS011;6539;49.476;8.484;2023-08-08T03:35:54;2.83;;;2.10;;
12947;SDS011;6539;49.476;8.484;2023-08-08T03:38:40;3.13;;;2.03;;
12947;SDS011;6539;49.476;8.484;2023-08-08T03:41:31;3.83;;;2.13;;
12947;SDS011;6539;49.476;8.484;2023-08-08T03:44:17;3.57;;;1.83;;
12947;SDS011;6539;49.476;8.484;2023-08-08T03:47:03;4.73;;;2.23;;
12947;SDS011;6539;49.476;8.484;2023-08-08T03:49:55;3.20;;;2.30;;
12947;SDS011;6539;49.476;8.484;2023-08-08T03:52:42;2.10;;;1.90;;
12947;SDS011;6539;49.476;8.484;2023-08-08T03:55:28;2.47;;;2.27;;
12947;SDS011;6539;49.476;8.484;2023-08-08T03:58:14;6.03;;;2.33;;
12947;SDS011;6539;49.476;8.484;2023-08-08T04:01:00;3.30;;;2.37;;
12947;SDS011;6539;49.476;8.484;2023-08-08T04:03:46;2.90;;;2.50;;
12947;SDS011;6539;49.476;8.484;2023-08-08T04:06:32;5.70;;;2.30;;
12947;SDS011;6539;49.476;8.484;2023-08-08T04:09:18;4.43;;;2.57;;
12947;SDS011;6539;49.476;8.484;2023-08-08T04:12:07;4.23;;;2.47;;
12947;SDS011;6539;49.476;8.484;2023-08-08T04:14:53;3.80;;;2.20;;
12947;SDS011;6539;49.476;8.484;2023-08-08T04:17:39;3.37;;;2.47;;
12947;SDS011;6539;49.476;8.484;2023-08-08T04:20:27;3.30;;;2.30;;
12947;SDS011;6539;49.476;8.484;2023-08-08T04:23:16;6.00;;;2.50;;
12947;SDS011;6539;49.476;8.484;2023-08-08T04:26:04;2.93;;;2.17;;
12947;SDS011;6539;49.476;8.484;2023-08-08T04:28:50;2.53;;;2.00;;
12947;SDS011;6539;49.476;8.484;2023-08-08T04:31:40;3.50;;;2.50;;
12947;SDS011;6539;49.476;8.484;2023-08-08T04:34:26;3.70;;;2.23;;
12947;SDS011;6539;49.476;8.484;2023-08-08T04:37:12;3.60;;;2.40;;
12947;SDS011;6539;49.476;8.484;2023-08-08T04:40:01;4.30;;;2.30;;
12947;SDS011;6539;49.476;8.484;2023-08-08T04:42:47;2.33;;;2.13;;
12947;SDS011;6539;49.476;8.484;2023-08-08T04:45:36;6.17;;;2.60;;
12947;SDS011;6539;49.476;8.484;2023-08-08T04:48:24;5.23;;;2.40;;
12947;SDS011;6539;49.476;8.484;2023-08-08T04:51:10;10.50;;;2.73;;
12947;SDS011;6539;49.476;8.484;2023-08-08T04:53:56;3.53;;;2.40;;
12947;SDS011;6539;49.476;8.484;2023-08-08T04:56:42;5.27;;;2.97;;
12947;SDS011;6539;49.476;8.484;2023-08-08T04:59:28;4.37;;;2.43;;
12947;SDS011;6539;49.476;8.484;2023-08-08T05:02:17;6.33;;;2.77;;
12947;SDS011;6539;49.476;8.484;2023-08-08T05:05:03;3.67;;;2.20;;
12947;SDS011;6539;49.476;8.484;2023-08-08T05:07:52;5.30;;;2.23;;
12947;SDS011;6539;49.476;8.484;2023-08-08T05:10:38;4.97;;;2.40;;
12947;SDS011;6539;49.476;8.484;2023-08-08T05:13:24;5.03;;;2.50;;
12947;SDS011;6539;49.476;8.484;2023-08-08T05:16:10;6.43;;;2.33;;
12947;SDS011;6539;49.476;8.484;2023-08-08T05:18:56;5.07;;;2.60;;
12947;SDS011;6539;49.476;8.484;2023-08-08T05:21:42;3.23;;;2.50;;
12947;SDS011;6539;49.476;8.484;2023-08-08T05:24:28;7.47;;;2.97;;
12947;SDS011;6539;49.476;8.484;2023-08-08T05:27:17;4.13;;;2.23;;
12947;SDS011;6539;49.476;8.484;2023-08-08T05:30:03;4.10;;;2.97;;
12947;SDS011;6539;49.476;8.484;2023-08-08T05:32:52;4.30;;;2.50;;
12947;SDS011;6539;49.476;8.484;2023-08-08T05:35:38;3.57;;;2.80;;
12947;SDS011;6539;49.476;8.484;2023-08-08T05:38:26;3.20;;;2.60;;
12947;SDS011;6539;49.476;8.484;2023-08-08T05:41:14;3.87;;;2.43;;
12947;SDS011;6539;49.476;8.484;2023-08-08T05:44:05;4.47;;;2.40;;
12947;SDS011;6539;49.476;8.484;2023-08-08T05:46:51;2.50;;;2.10;;
12947;SDS011;6539;49.476;8.484;2023-08-08T05:49:38;3.80;;;2.07;;
12947;SDS011;6539;49.476;8.484;2023-08-08T05:52:26;4.60;;;1.90;;
12947;SDS011;6539;49.476;8.484;2023-08-08T05:55:13;4.67;;;2.10;;
12947;SDS011;6539;49.476;8.484;2023-08-08T05:58:01;3.47;;;2.20;;
12947;SDS011;6539;49.476;8.484;2023-08-08T06:00:52;2.70;;;2.37;;
12947;SDS011;6539;49.476;8.484;2023-08-08T06:03:38;7.07;;;2.33;;
12947;SDS011;6539;49.476;8.484;2023-08-08T06:06:27;4.37;;;2.10;;
12947;SDS011;6539;49.476;8.484;2023-08-08T06:09:17;3.67;;;2.00;;
12947;SDS011;6539;49.476;8.484;2023-08-08T06:12:03;5.07;;;2.60;;
12947;SDS011;6539;49.476;8.484;2023-08-08T06:14:52;5.30;;;2.73;;
12947;SDS011;6539;49.476;8.484;2023-08-08T06:17:40;4.33;;;2.80;;
12947;SDS011;6539;49.476;8.484;2023-08-08T06:20:26;8.23;;;2.57;;
12947;SDS011;6539;49.476;8.484;2023-08-08T06:23:13;6.70;;;2.37;;
12947;SDS011;6539;49.476;8.484;2023-08-08T06:26:02;3.77;;;2.50;;
12947;SDS011;6539;49.476;8.484;2023-08-08T06:28:50;3.00;;;2.33;;
12947;SDS011;6539;49.476;8.484;2023-08-08T06:31:38;4.40;;;2.63;;
12947;SDS011;6539;49.476;8.484;2023-08-08T06:34:24;4.87;;;2.30;;
12947;SDS011;6539;49.476;8.484;2023-08-08T06:37:10;4.83;;;2.03;;
12947;SDS011;6539;49.476;8.484;2023-08-08T06:39:56;7.17;;;2.07;;
12947;SDS011;6539;49.476;8.484;2023-08-08T06:42:42;2.53;;;1.70;;
12947;SDS011;6539;49.476;8.484;2023-08-08T06:45:28;3.13;;;1.87;;
12947;SDS011;6539;49.476;8.484;2023-08-08T06:48:14;3.10;;;2.00;;
12947;SDS011;6539;49.476;8.484;2023-08-08T06:51:03;3.10;;;1.70;;
12947;SDS011;6539;49.476;8.484;2023-08-08T06:53:51;4.97;;;2.60;;
12947;SDS011;6539;49.476;8.484;2023-08-08T06:56:38;2.63;;;1.57;;
12947;SDS011;6539;49.476;8.484;2023-08-08T06:59:26;4.80;;;1.90;;
12947;SDS011;6539;49.476;8.484;2023-08-08T07:02:13;4.33;;;1.87;;
12947;SDS011;6539;49.476;8.484;2023-08-08T07:05:02;6.00;;;2.17;;
12947;SDS011;6539;49.476;8.484;2023-08-08T07:07:51;4.10;;;1.90;;
12947;SDS011;6539;49.476;8.484;2023-08-08T07:10:38;4.37;;;1.80;;
12947;SDS011;6539;49.476;8.484;2023-08-08T07:13:25;5.10;;;2.23;;
12947;SDS011;6539;49.476;8.484;2023-08-08T07:16:11;5.00;;;1.90;;
12947;SDS011;6539;49.476;8.484;2023-08-08T07:18:58;3.43;;;1.90;;
12947;SDS011;6539;49.476;8.484;2023-08-08T07:21:47;5.73;;;2.63;;
12947;SDS011;6539;49.476;8.484;2023-08-08T07:24:38;3.43;;;1.63;;
12947;SDS011;6539;49.476;8.484;2023-08-08T07:27:26;3.90;;;1.90;;
12947;SDS011;6539;49.476;8.484;2023-08-08T07:30:12;4.07;;;1.80;;
12947;SDS011;6539;49.476;8.484;2023-08-08T07:32:58;9.23;;;2.40;;
12947;SDS011;6539;49.476;8.484;2023-08-08T07:35:44;4.67;;;2.07;;
12947;SDS011;6539;49.476;8.484;2023-08-08T07:38:33;2.63;;;1.70;;
12947;SDS011;6539;49.476;8.484;2023-08-08T07:41:19;4.50;;;2.10;;
12947;SDS011;6539;49.476;8.484;2023-08-08T07:44:05;2.77;;;1.90;;
12947;SDS011;6539;49.476;8.484;2023-08-08T07:46:51;3.67;;;1.80;;
12947;SDS011;6539;49.476;8.484;2023-08-08T07:49:37;4.20;;;1.90;;
12947;SDS011;6539;49.476;8.484;2023-08-08T07:52:23;4.70;;;1.80;;
12947;SDS011;6539;49.476;8.484;2023-08-08T07:55:11;2.37;;;1.50;;
12947;SDS011;6539;49.476;8.484;2023-08-08T07:57:58;5.27;;;1.93;;
12947;SDS011;6539;49.476;8.484;2023-08-08T08:00:48;4.70;;;1.80;;
12947;SDS011;6539;49.476;8.484;2023-08-08T08:03:34;2.20;;;1.60;;
12947;SDS011;6539;49.476;8.484;2023-08-08T08:06:21;3.83;;;1.77;;
12947;SDS011;6539;49.476;8.484;2023-08-08T08:09:07;2.27;;;1.60;;
12947;SDS011;6539;49.476;8.484;2023-08-08T08:11:53;4.13;;;1.80;;
12947;SDS011;6539;49.476;8.484;2023-08-08T08:14:41;3.40;;;1.70;;
12947;SDS011;6539;49.476;8.484;2023-08-08T08:17:27;3.97;;;1.70;;
12947;SDS011;6539;49.476;8.484;2023-08-08T08:20:16;2.00;;;1.30;;
12947;SDS011;6539;49.476;8.484;2023-08-08T08:23:02;1.60;;;1.13;;
12947;SDS011;6539;49.476;8.484;2023-08-08T08:25:51;2.53;;;1.57;;
12947;SDS011;6539;49.476;8.484;2023-08-08T08:28:39;4.20;;;1.50;;
12947;SDS011;6539;49.476;8.484;2023-08-08T08:31:25;5.00;;;1.40;;
12947;SDS011;6539;49.476;8.484;2023-08-08T08:34:14;3.53;;;1.43;;
12947;SDS011;6539;49.476;8.484;2023-08-08T08:37:02;6.60;;;1.87;;
12947;SDS011;6539;49.476;8.484;2023-08-08T08:39:48;5.67;;;1.73;;
12947;SDS011;6539;49.476;8.484;2023-08-08T08:42:37;2.77;;;1.63;;
12947;SDS011;6539;49.476;8.484;2023-08-08T08:45:27;2.07;;;1.33;;
12947;SDS011;6539;49.476;8.484;2023-08-08T08:48:17;5.10;;;1.90;;
12947;SDS011;6539;49.476;8.484;2023-08-08T08:51:06;4.13;;;1.57;;
12947;SDS011;6539;49.476;8.484;2023-08-08T08:53:56;2.47;;;1.50;;
12947;SDS011;6539;49.476;8.484;2023-08-08T08:56:44;6.80;;;1.70;;
12947;SDS011;6539;49.476;8.484;2023-08-08T08:59:30;1.63;;;1.30;;
12947;SDS011;6539;49.476;8.484;2023-08-08T09:02:18;3.20;;;1.57;;
12947;SDS011;6539;49.476;8.484;2023-08-08T09:05:08;2.37;;;1.47;;
12947;SDS011;6539;49.476;8.484;2023-08-08T09:07:57;3.60;;;1.27;;
12947;SDS011;6539;49.476;8.484;2023-08-08T09:10:43;2.10;;;1.33;;
12947;SDS011;6539;49.476;8.484;2023-08-08T09:13:38;1.50;;;1.20;;
12947;SDS011;6539;49.476;8.484;2023-08-08T09:16:25;2.63;;;1.30;;
12947;SDS011;6539;49.476;8.484;2023-08-08T09:19:11;3.07;;;1.53;;
12947;SDS011;6539;49.476;8.484;2023-08-08T09:21:59;1.93;;;1.30;;
12947;SDS011;6539;49.476;8.484;2023-08-08T09:24:47;2.23;;;1.20;;
12947;SDS011;6539;49.476;8.484;2023-08-08T09:27:34;3.30;;;1.60;;
12947;SDS011;6539;49.476;8.484;2023-08-08T09:30:21;2.53;;;1.53;;
12947;SDS011;6539;49.476;8.484;2023-08-08T09:33:07;1.50;;;1.17;;
12947;SDS011;6539;49.476;8.484;2023-08-08T09:35:53;3.07;;;1.50;;
12947;SDS011;6539;49.476;8.484;2023-08-08T09:38:40;2.97;;;1.40;;
12947;SDS011;6539;49.476;8.484;2023-08-08T09:41:29;2.47;;;1.40;;
12947;SDS011;6539;49.476;8.484;2023-08-08T09:44:15;4.50;;;1.33;;
12947;SDS011;6539;49.476;8.484;2023-08-08T09:47:02;1.70;;;1.30;;
12947;SDS011;6539;49.476;8.484;2023-08-08T09:49:51;3.50;;;1.87;;
12947;SDS011;6539;49.476;8.484;2023-08-08T09:52:42;5.40;;;1.77;;
12947;SDS011;6539;49.476;8.484;2023-08-08T09:55:29;3.50;;;1.63;;
12947;SDS011;6539;49.476;8.484;2023-08-08T09:58:20;2.03;;;1.40;;
12947;SDS011;6539;49.476;8.484;2023-08-08T10:01:07;3.50;;;1.60;;
12947;SDS011;6539;49.476;8.484;2023-08-08T10:03:58;4.53;;;1.53;;
12947;SDS011;6539;49.476;8.484;2023-08-08T10:06:45;3.37;;;1.60;;
12947;SDS011;6539;49.476;8.484;2023-08-08T10:09:34;2.97;;;1.43;;
12947;SDS011;6539;49.476;8.484;2023-08-08T10:12:20;2.40;;;1.50;;
12947;SDS011;6539;49.476;8.484;2023-08-08T10:15:11;2.97;;;1.33;;
12947;SDS011;6539;49.476;8.484;2023-08-08T10:17:59;3.37;;;1.80;;
12947;SDS011;6539;49.476;8.484;2023-08-08T10:20:47;2.47;;;1.23;;
12947;SDS011;6539;49.476;8.484;2023-08-08T10:23:37;2.57;;;1.40;;
12947;SDS011;6539;49.476;8.484;2023-08-08T10:26:24;4.07;;;1.53;;
12947;SDS011;6539;49.476;8.484;2023-08-08T10:29:17;2.13;;;1.50;;
12947;SDS011;6539;49.476;8.484;2023-08-08T10:32:05;4.03;;;1.40;;
12947;SDS011;6539;49.476;8.484;2023-08-08T10:34:54;2.30;;;1.40;;
12947;SDS011;6539;49.476;8.484;2023-08-08T10:37:55;2.00;;;1.73;;
12947;SDS011;6539;49.476;8.484;2023-08-08T10:40:42;2.63;;;1.70;;
12947;SDS011;6539;49.476;8.484;2023-08-08T10:43:29;4.37;;;1.40;;
12947;SDS011;6539;49.476;8.484;2023-08-08T10:46:29;3.27;;;1.77;;
12947;SDS011;6539;49.476;8.484;2023-08-08T10:49:17;3.83;;;1.60;;
12947;SDS011;6539;49.476;8.484;2023-08-08T10:52:03;2.47;;;1.70;;
12947;SDS011;6539;49.476;8.484;2023-08-08T10:54:53;2.23;;;1.40;;
12947;SDS011;6539;49.476;8.484;2023-08-08T10:57:41;5.07;;;2.07;;
12947;SDS011;6539;49.476;8.484;2023-08-08T11:00:28;3.17;;;1.63;;
12947;SDS011;6539;49.476;8.484;2023-08-08T11:03:23;1.73;;;1.47;;
12947;SDS011;6539;49.476;8.484;2023-08-08T11:06:09;4.68;;;1.48;;
12947;SDS011;6539;49.476;8.484;2023-08-08T11:08:56;4.03;;;1.40;;
12947;SDS011;6539;49.476;8.484;2023-08-08T11:11:43;3.05;;;1.60;;
12947;SDS011;6539;49.476;8.484;2023-08-08T11:14:32;2.10;;;1.50;;
12947;SDS011;6539;49.476;8.484;2023-08-08T11:17:18;4.53;;;1.80;;
12947;SDS011;6539;49.476;8.484;2023-08-08T11:20:07;2.70;;;1.40;;
12947;SDS011;6539;49.476;8.484;2023-08-08T11:22:54;3.13;;;1.30;;
12947;SDS011;6539;49.476;8.484;2023-08-08T11:25:42;5.33;;;1.90;;
12947;SDS011;6539;49.476;8.484;2023-08-08T11:28:30;5.80;;;1.50;;
12947;SDS011;6539;49.476;8.484;2023-08-08T11:31:17;1.95;;;1.50;;
12947;SDS011;6539;49.476;8.484;2023-08-08T11:34:06;2.83;;;1.58;;
12947;SDS011;6539;49.476;8.484;2023-08-08T11:36:55;4.87;;;1.43;;
12947;SDS011;6539;49.476;8.484;2023-08-08T11:39:43;4.97;;;1.57;;
12947;SDS011;6539;49.476;8.484;2023-08-08T11:42:33;4.23;;;1.70;;
12947;SDS011;6539;49.476;8.484;2023-08-08T11:45:19;1.97;;;1.27;;
12947;SDS011;6539;49.476;8.484;2023-08-08T11:48:08;2.00;;;1.40;;
12947;SDS011;6539;49.476;8.484;2023-08-08T11:50:55;1.67;;;1.20;;
12947;SDS011;6539;49.476;8.484;2023-08-08T11:53:51;2.40;;;1.40;;
12947;SDS011;6539;49.476;8.484;2023-08-08T11:56:39;1.53;;;1.30;;
12947;SDS011;6539;49.476;8.484;2023-08-08T11:59:26;2.00;;;1.47;;
12947;SDS011;6539;49.476;8.484;2023-08-08T12:02:16;3.20;;;1.40;;
12947;SDS011;6539;49.476;8.484;2023-08-08T12:05:06;4.27;;;3.50;;
12947;SDS011;6539;49.476;8.484;2023-08-08T12:07:54;4.20;;;1.40;;
12947;SDS011;6539;49.476;8.484;2023-08-08T12:10:47;2.28;;;1.30;;
12947;SDS011;6539;49.476;8.484;2023-08-08T12:13:39;2.33;;;1.70;;
12947;SDS011;6539;49.476;8.484;2023-08-08T12:16:29;3.70;;;1.73;;
12947;SDS011;6539;49.476;8.484;2023-08-08T12:19:16;1.58;;;1.35;;
12947;SDS011;6539;49.476;8.484;2023-08-08T12:22:06;2.58;;;1.40;;
12947;SDS011;6539;49.476;8.484;2023-08-08T12:24:52;2.13;;;1.30;;
12947;SDS011;6539;49.476;8.484;2023-08-08T12:27:38;1.75;;;1.40;;
12947;SDS011;6539;49.476;8.484;2023-08-08T12:30:24;1.58;;;1.10;;
12947;SDS011;6539;49.476;8.484;2023-08-08T12:33:16;2.67;;;1.48;;
12947;SDS011;6539;49.476;8.484;2023-08-08T12:36:07;2.55;;;1.50;;
12947;SDS011;6539;49.476;8.484;2023-08-08T12:38:55;1.30;;;1.20;;
12947;SDS011;6539;49.476;8.484;2023-08-08T12:41:44;2.90;;;1.67;;
12947;SDS011;6539;49.476;8.484;2023-08-08T12:44:30;2.42;;;1.20;;
12947;SDS011;6539;49.476;8.484;2023-08-08T12:47:19;1.70;;;1.17;;
12947;SDS011;6539;49.476;8.484;2023-08-08T12:50:06;1.65;;;1.40;;
12947;SDS011;6539;49.476;8.484;2023-08-08T12:52:57;2.30;;;1.75;;
12947;SDS011;6539;49.476;8.484;2023-08-08T12:55:43;2.38;;;1.60;;
12947;SDS011;6539;49.476;8.484;2023-08-08T12:58:29;2.75;;;1.52;;
12947;SDS011;6539;49.476;8.484;2023-08-08T13:01:18;2.63;;;1.50;;
12947;SDS011;6539;49.476;8.484;2023-08-08T13:04:06;1.92;;;1.52;;
12947;SDS011;6539;49.476;8.484;2023-08-08T13:06:52;3.63;;;1.65;;
12947;SDS011;6539;49.476;8.484;2023-08-08T13:09:39;2.15;;;1.50;;
12947;SDS011;6539;49.476;8.484;2023-08-08T13:12:25;2.45;;;1.35;;
12947;SDS011;6539;49.476;8.484;2023-08-08T13:15:11;3.75;;;1.30;;
12947;SDS011;6539;49.476;8.484;2023-08-08T13:17:58;4.40;;;1.40;;
12947;SDS011;6539;49.476;8.484;2023-08-08T13:20:44;1.80;;;1.30;;
12947;SDS011;6539;49.476;8.484;2023-08-08T13:23:30;1.92;;;1.40;;
12947;SDS011;6539;49.476;8.484;2023-08-08T13:26:19;1.70;;;1.42;;
12947;SDS011;6539;49.476;8.484;2023-08-08T13:29:06;2.22;;;1.40;;
12947;SDS011;6539;49.476;8.484;2023-08-08T13:31:57;1.50;;;1.40;;
12947;SDS011;6539;49.476;8.484;2023-08-08T13:34:43;2.17;;;1.38;;
12947;SDS011;6539;49.476;8.484;2023-08-08T13:37:29;2.38;;;1.50;;
12947;SDS011;6539;49.476;8.484;2023-08-08T13:40:15;1.77;;;1.30;;
12947;SDS011;6539;49.476;8.484;2023-08-08T13:43:01;2.60;;;1.40;;
12947;SDS011;6539;49.476;8.484;2023-08-08T13:45:48;5.53;;;1.57;;
12947;SDS011;6539;49.476;8.484;2023-08-08T13:48:35;1.40;;;1.20;;
12947;SDS011;6539;49.476;8.484;2023-08-08T13:51:21;2.87;;;1.40;;
12947;SDS011;6539;49.476;8.484;2023-08-08T13:54:07;2.40;;;1.50;;
12947;SDS011;6539;49.476;8.484;2023-08-08T13:56:55;2.17;;;1.40;;
12947;SDS011;6539;49.476;8.484;2023-08-08T13:59:41;5.07;;;1.70;;
12947;SDS011;6539;49.476;8.484;2023-08-08T14:02:29;2.57;;;1.50;;
12947;SDS011;6539;49.476;8.484;2023-08-08T14:05:15;3.00;;;1.30;;
12947;SDS011;6539;49.476;8.484;2023-08-08T14:08:01;1.40;;;1.30;;
12947;SDS011;6539;49.476;8.484;2023-08-08T14:10:47;1.70;;;1.30;;
12947;SDS011;6539;49.476;8.484;2023-08-08T14:13:34;4.47;;;1.60;;
12947;SDS011;6539;49.476;8.484;2023-08-08T14:16:20;1.50;;;1.30;;
12947;SDS011;6539;49.476;8.484;2023-08-08T14:19:11;4.17;;;1.40;;
12947;SDS011;6539;49.476;8.484;2023-08-08T14:21:59;1.87;;;1.03;;
12947;SDS011;6539;49.476;8.484;2023-08-08T14:24:47;3.30;;;2.33;;
12947;SDS011;6539;49.476;8.484;2023-08-08T14:27:36;3.10;;;1.50;;
12947;SDS011;6539;49.476;8.484;2023-08-08T14:30:22;2.63;;;1.30;;
12947;SDS011;6539;49.476;8.484;2023-08-08T14:33:15;2.67;;;1.43;;
12947;SDS011;6539;49.476;8.484;2023-08-08T14:36:06;2.50;;;1.20;;
12947;SDS011;6539;49.476;8.484;2023-08-08T14:38:52;4.13;;;1.90;;
12947;SDS011;6539;49.476;8.484;2023-08-08T14:41:43;4.03;;;2.50;;
12947;SDS011;6539;49.476;8.484;2023-08-08T14:44:29;3.83;;;1.27;;
12947;SDS011;6539;49.476;8.484;2023-08-08T14:47:18;3.40;;;1.43;;
12947;SDS011;6539;49.476;8.484;2023-08-08T14:50:05;2.67;;;1.20;;
12947;SDS011;6539;49.476;8.484;2023-08-08T14:52:52;3.00;;;1.70;;
12947;SDS011;6539;49.476;8.484;2023-08-08T14:55:38;1.97;;;1.30;;
12947;SDS011;6539;49.476;8.484;2023-08-08T14:58:25;2.30;;;1.40;;
12947;SDS011;6539;49.476;8.484;2023-08-08T15:01:13;1.97;;;1.50;;
12947;SDS011;6539;49.476;8.484;2023-08-08T15:04:00;2.90;;;1.53;;
12947;SDS011;6539;49.476;8.484;2023-08-08T15:06:48;2.53;;;1.33;;
12947;SDS011;6539;49.476;8.484;2023-08-08T15:09:34;2.77;;;1.47;;
12947;SDS011;6539;49.476;8.484;2023-08-08T15:12:22;1.93;;;1.40;;
12947;SDS011;6539;49.476;8.484;2023-08-08T15:15:08;2.27;;;1.70;;
12947;SDS011;6539;49.476;8.484;2023-08-08T15:17:55;2.43;;;1.80;;
12947;SDS011;6539;49.476;8.484;2023-08-08T15:20:41;2.53;;;1.30;;
12947;SDS011;6539;49.476;8.484;2023-08-08T15:23:27;2.40;;;1.70;;
12947;SDS011;6539;49.476;8.484;2023-08-08T15:26:16;2.10;;;1.60;;
12947;SDS011;6539;49.476;8.484;2023-08-08T15:29:07;5.00;;;1.80;;
12947;SDS011;6539;49.476;8.484;2023-08-08T15:31:53;2.37;;;1.70;;
12947;SDS011;6539;49.476;8.484;2023-08-08T15:34:44;2.20;;;1.47;;
12947;SDS011;6539;49.476;8.484;2023-08-08T15:37:33;1.90;;;1.50;;
12947;SDS011;6539;49.476;8.484;2023-08-08T15:40:19;2.90;;;1.80;;
12947;SDS011;6539;49.476;8.484;2023-08-08T15:43:05;1.50;;;1.40;;
12947;SDS011;6539;49.476;8.484;2023-08-08T15:45:51;2.27;;;1.70;;
12947;SDS011;6539;49.476;8.484;2023-08-08T15:48:44;2.57;;;1.53;;
12947;SDS011;6539;49.476;8.484;2023-08-08T15:51:30;2.37;;;1.50;;
12947;SDS011;6539;49.476;8.484;2023-08-08T15:54:17;3.43;;;1.40;;
12947;SDS011;6539;49.476;8.484;2023-08-08T15:57:05;2.37;;;1.53;;
12947;SDS011;6539;49.476;8.484;2023-08-08T15:59:56;1.80;;;1.23;;
12947;SDS011;6539;49.476;8.484;2023-08-08T16:02:42;3.70;;;1.50;;
12947;SDS011;6539;49.476;8.484;2023-08-08T16:05:30;1.93;;;1.67;;
12947;SDS011;6539;49.476;8.484;2023-08-08T16:08:18;4.17;;;1.43;;
12947;SDS011;6539;49.476;8.484;2023-08-08T16:11:04;2.30;;;1.60;;
12947;SDS011;6539;49.476;8.484;2023-08-08T16:13:52;4.33;;;1.63;;
12947;SDS011;6539;49.476;8.484;2023-08-08T16:16:38;3.60;;;1.80;;
12947;SDS011;6539;49.476;8.484;2023-08-08T16:19:29;2.67;;;1.43;;
12947;SDS011;6539;49.476;8.484;2023-08-08T16:22:16;1.60;;;1.50;;
12947;SDS011;6539;49.476;8.484;2023-08-08T16:25:02;2.87;;;1.70;;
12947;SDS011;6539;49.476;8.484;2023-08-08T16:27:49;2.20;;;1.67;;
12947;SDS011;6539;49.476;8.484;2023-08-08T16:30:37;2.13;;;1.50;;
12947;SDS011;6539;49.476;8.484;2023-08-08T16:33:23;3.40;;;1.93;;
12947;SDS011;6539;49.476;8.484;2023-08-08T16:36:12;2.77;;;1.70;;
12947;SDS011;6539;49.476;8.484;2023-08-08T16:39:00;3.23;;;1.63;;
12947;SDS011;6539;49.476;8.484;2023-08-08T16:41:46;2.43;;;1.60;;
12947;SDS011;6539;49.476;8.484;2023-08-08T16:44:32;3.83;;;1.90;;
12947;SDS011;6539;49.476;8.484;2023-08-08T16:47:18;3.93;;;1.87;;
12947;SDS011;6539;49.476;8.484;2023-08-08T16:50:05;7.63;;;1.83;;
12947;SDS011;6539;49.476;8.484;2023-08-08T16:52:52;3.50;;;1.60;;
12947;SDS011;6539;49.476;8.484;2023-08-08T16:55:38;3.27;;;1.80;;
12947;SDS011;6539;49.476;8.484;2023-08-08T16:58:32;2.70;;;1.90;;
12947;SDS011;6539;49.476;8.484;2023-08-08T17:01:19;2.40;;;1.90;;
12947;SDS011;6539;49.476;8.484;2023-08-08T17:04:05;2.13;;;1.70;;
12947;SDS011;6539;49.476;8.484;2023-08-08T17:06:51;2.70;;;1.90;;